sensor_id;sensor_type;location;lat;lon;timestamp;pressure;altitude;pressure_sealevel;temperature;humidity
20628;BME280;10473;42.734;24.258;2023-01-31T00:02:23;91115.59;;;-0.86;80.50
20628;BME280;10473;42.734;24.258;2023-01-31T00:04:51;91090.88;;;-0.71;80.17
20628;BME280;10473;42.734;24.258;2023-01-31T00:07:19;91085.69;;;-0.71;79.33
20628;BME280;10473;42.734;24.258;2023-01-31T00:09:46;91089.75;;;-0.62;78.46
20628;BME280;10473;42.734;24.258;2023-01-31T00:12:14;91091.53;;;-0.54;77.22
20628;BME280;10473;42.734;24.258;2023-01-31T00:14:42;91071.50;;;-0.53;76.41
20628;BME280;10473;42.734;24.258;2023-01-31T00:17:09;91097.75;;;-0.46;76.18
20628;BME280;10473;42.734;24.258;2023-01-31T00:19:38;91073.00;;;-0.52;76.24
20628;BME280;10473;42.734;24.258;2023-01-31T00:22:06;91087.22;;;-0.50;76.42
20628;BME280;10473;42.734;24.258;2023-01-31T00:24:34;91067.16;;;-0.70;77.93
20628;BME280;10473;42.734;24.258;2023-01-31T00:27:02;91041.28;;;-0.87;76.52
20628;BME280;10473;42.734;24.258;2023-01-31T00:29:30;91077.81;;;-0.63;75.66
20628;BME280;10473;42.734;24.258;2023-01-31T00:31:57;91063.06;;;-0.71;75.02
20628;BME280;10473;42.734;24.258;2023-01-31T00:34:25;91099.81;;;-0.60;74.54
20628;BME280;10473;42.734;24.258;2023-01-31T00:36:55;91075.03;;;-0.58;76.49
20628;BME280;10473;42.734;24.258;2023-01-31T00:39:23;91099.50;;;-0.59;76.12
20628;BME280;10473;42.734;24.258;2023-01-31T00:41:51;91078.66;;;-0.71;75.69
20628;BME280;10473;42.734;24.258;2023-01-31T00:44:18;91081.75;;;-0.77;76.53
20628;BME280;10473;42.734;24.258;2023-01-31T00:46:46;91076.91;;;-0.67;77.79
20628;BME280;10473;42.734;24.258;2023-01-31T00:49:14;91079.47;;;-0.79;79.65
20628;BME280;10473;42.734;24.258;2023-01-31T00:51:42;91073.88;;;-0.89;79.40
20628;BME280;10473;42.734;24.258;2023-01-31T00:54:11;91080.28;;;-0.87;80.62
20628;BME280;10473;42.734;24.258;2023-01-31T00:56:39;91080.47;;;-0.92;79.10
20628;BME280;10473;42.734;24.258;2023-01-31T00:59:06;91052.31;;;-0.90;80.29
20628;BME280;10473;42.734;24.258;2023-01-31T01:01:35;91051.31;;;-0.97;77.89
20628;BME280;10473;42.734;24.258;2023-01-31T01:04:04;91076.16;;;-0.88;75.85
20628;BME280;10473;42.734;24.258;2023-01-31T01:06:33;91053.06;;;-0.89;71.32
20628;BME280;10473;42.734;24.258;2023-01-31T01:09:01;91090.38;;;-0.65;70.24
20628;BME280;10473;42.734;24.258;2023-01-31T01:11:31;91100.28;;;-0.58;69.93
20628;BME280;10473;42.734;24.258;2023-01-31T01:14:00;91092.66;;;-0.43;67.79
20628;BME280;10473;42.734;24.258;2023-01-31T01:16:31;91113.97;;;-0.29;65.35
20628;BME280;10473;42.734;24.258;2023-01-31T01:19:03;91105.34;;;-0.21;64.02
20628;BME280;10473;42.734;24.258;2023-01-31T01:21:32;91105.56;;;-0.14;62.94
20628;BME280;10473;42.734;24.258;2023-01-31T01:24:06;91103.88;;;-0.10;61.73
20628;BME280;10473;42.734;24.258;2023-01-31T01:26:36;91099.75;;;-0.11;60.96
20628;BME280;10473;42.734;24.258;2023-01-31T01:29:05;91092.97;;;0.09;58.08
20628;BME280;10473;42.734;24.258;2023-01-31T01:31:32;91069.06;;;-0.05;57.85
20628;BME280;10473;42.734;24.258;2023-01-31T01:34:03;91086.63;;;0.18;53.59
20628;BME280;10473;42.734;24.258;2023-01-31T01:36:32;91084.22;;;0.25;55.48
20628;BME280;10473;42.734;24.258;2023-01-31T01:39:00;91061.03;;;0.32;54.22
20628;BME280;10473;42.734;24.258;2023-01-31T01:41:29;91074.06;;;0.44;56.44
20628;BME280;10473;42.734;24.258;2023-01-31T01:44:03;91103.91;;;0.47;54.64
20628;BME280;10473;42.734;24.258;2023-01-31T01:46:35;91091.44;;;0.40;56.10
20628;BME280;10473;42.734;24.258;2023-01-31T01:49:12;91057.56;;;0.40;60.10
20628;BME280;10473;42.734;24.258;2023-01-31T01:51:43;91053.97;;;0.21;60.77
20628;BME280;10473;42.734;24.258;2023-01-31T01:54:15;91073.34;;;0.11;61.12
20628;BME280;10473;42.734;24.258;2023-01-31T01:56:47;91081.09;;;0.20;54.24
20628;BME280;10473;42.734;24.258;2023-01-31T01:59:22;91080.09;;;0.24;54.13
20628;BME280;10473;42.734;24.258;2023-01-31T02:01:51;91060.59;;;0.30;55.28
20628;BME280;10473;42.734;24.258;2023-01-31T02:04:25;91081.88;;;0.32;51.20
20628;BME280;10473;42.734;24.258;2023-01-31T02:06:55;91081.22;;;0.35;51.09
20628;BME280;10473;42.734;24.258;2023-01-31T02:09:32;91086.53;;;0.39;52.86
20628;BME280;10473;42.734;24.258;2023-01-31T02:12:05;91098.03;;;0.38;55.63
20628;BME280;10473;42.734;24.258;2023-01-31T02:14:36;91093.16;;;0.36;53.80
20628;BME280;10473;42.734;24.258;2023-01-31T02:17:03;91071.69;;;0.39;51.34
20628;BME280;10473;42.734;24.258;2023-01-31T02:19:44;91085.13;;;0.41;50.66
20628;BME280;10473;42.734;24.258;2023-01-31T02:22:20;91101.63;;;0.45;50.26
20628;BME280;10473;42.734;24.258;2023-01-31T02:25:18;91073.28;;;0.44;47.71
20628;BME280;10473;42.734;24.258;2023-01-31T02:31:17;91094.28;;;0.47;48.98
20628;BME280;10473;42.734;24.258;2023-01-31T02:33:56;91096.00;;;0.55;47.02
20628;BME280;10473;42.734;24.258;2023-01-31T02:36:34;91070.56;;;0.28;50.08
20628;BME280;10473;42.734;24.258;2023-01-31T02:39:10;91116.75;;;0.52;55.56
20628;BME280;10473;42.734;24.258;2023-01-31T02:41:44;91114.03;;;0.48;53.34
20628;BME280;10473;42.734;24.258;2023-01-31T02:44:20;91119.88;;;0.45;60.28
20628;BME280;10473;42.734;24.258;2023-01-31T02:47:11;91109.19;;;0.26;52.41
20628;BME280;10473;42.734;24.258;2023-01-31T02:49:46;91106.16;;;0.36;51.65
20628;BME280;10473;42.734;24.258;2023-01-31T02:52:21;91118.78;;;0.46;53.20
20628;BME280;10473;42.734;24.258;2023-01-31T02:55:03;91108.59;;;0.53;53.24
20628;BME280;10473;42.734;24.258;2023-01-31T02:57:52;91112.16;;;0.49;55.24
20628;BME280;10473;42.734;24.258;2023-01-31T03:00:23;91113.72;;;0.50;55.54
20628;BME280;10473;42.734;24.258;2023-01-31T03:02:53;91081.88;;;0.32;56.51
20628;BME280;10473;42.734;24.258;2023-01-31T03:05:24;91090.22;;;0.38;59.51
20628;BME280;10473;42.734;24.258;2023-01-31T03:07:55;91088.34;;;0.26;59.49
20628;BME280;10473;42.734;24.258;2023-01-31T03:10:49;91111.38;;;0.24;58.84
20628;BME280;10473;42.734;24.258;2023-01-31T03:13:34;91083.41;;;0.33;58.92
20628;BME280;10473;42.734;24.258;2023-01-31T03:16:15;91091.63;;;0.23;60.39
20628;BME280;10473;42.734;24.258;2023-01-31T03:19:07;91106.16;;;0.24;61.48
20628;BME280;10473;42.734;24.258;2023-01-31T03:21:44;91065.88;;;0.22;62.46
20628;BME280;10473;42.734;24.258;2023-01-31T03:24:15;91120.56;;;0.22;63.31
20628;BME280;10473;42.734;24.258;2023-01-31T03:26:43;91087.81;;;0.21;63.91
20628;BME280;10473;42.734;24.258;2023-01-31T03:29:14;91098.97;;;0.21;63.76
20628;BME280;10473;42.734;24.258;2023-01-31T03:31:47;91112.66;;;0.18;65.02
20628;BME280;10473;42.734;24.258;2023-01-31T03:34:19;91111.75;;;0.14;66.20
20628;BME280;10473;42.734;24.258;2023-01-31T03:36:52;91067.00;;;-0.12;66.66
20628;BME280;10473;42.734;24.258;2023-01-31T03:39:36;91114.34;;;0.03;67.03
20628;BME280;10473;42.734;24.258;2023-01-31T03:42:11;91095.75;;;-0.08;67.50
20628;BME280;10473;42.734;24.258;2023-01-31T03:44:48;91083.00;;;-0.22;68.68
20628;BME280;10473;42.734;24.258;2023-01-31T03:47:22;91076.00;;;-0.09;68.26
20628;BME280;10473;42.734;24.258;2023-01-31T03:49:55;91083.81;;;-0.09;68.11
20628;BME280;10473;42.734;24.258;2023-01-31T03:52:30;91077.28;;;-0.15;68.37
20628;BME280;10473;42.734;24.258;2023-01-31T03:55:03;91052.66;;;-0.18;68.60
20628;BME280;10473;42.734;24.258;2023-01-31T03:57:35;91067.19;;;-0.17;68.27
20628;BME280;10473;42.734;24.258;2023-01-31T04:00:08;91054.81;;;-0.20;68.37
20628;BME280;10473;42.734;24.258;2023-01-31T04:02:41;91039.97;;;-0.19;68.82
20628;BME280;10473;42.734;24.258;2023-01-31T04:05:15;91028.13;;;-0.29;68.87
20628;BME280;10473;42.734;24.258;2023-01-31T04:07:48;90999.91;;;-0.39;68.70
20628;BME280;10473;42.734;24.258;2023-01-31T04:10:22;91025.63;;;-0.25;68.96
20628;BME280;10473;42.734;24.258;2023-01-31T04:12:51;91007.69;;;-0.39;68.69
20628;BME280;10473;42.734;24.258;2023-01-31T04:15:20;91010.34;;;-0.27;68.80
20628;BME280;10473;42.734;24.258;2023-01-31T04:17:48;91012.97;;;-0.27;68.73
20628;BME280;10473;42.734;24.258;2023-01-31T04:20:16;91008.41;;;-0.18;67.99
20628;BME280;10473;42.734;24.258;2023-01-31T04:22:43;90979.34;;;-0.32;69.13
20628;BME280;10473;42.734;24.258;2023-01-31T04:25:12;91008.19;;;-0.25;69.05
20628;BME280;10473;42.734;24.258;2023-01-31T04:27:42;91024.00;;;-0.30;69.57
20628;BME280;10473;42.734;24.258;2023-01-31T04:30:11;91021.81;;;-0.28;69.19
20628;BME280;10473;42.734;24.258;2023-01-31T04:32:38;91000.34;;;-0.37;69.11
20628;BME280;10473;42.734;24.258;2023-01-31T04:35:07;90980.47;;;-0.41;69.22
20628;BME280;10473;42.734;24.258;2023-01-31T04:37:35;90992.97;;;-0.35;69.75
20628;BME280;10473;42.734;24.258;2023-01-31T04:40:03;91012.47;;;-0.41;70.36
20628;BME280;10473;42.734;24.258;2023-01-31T04:42:32;90985.06;;;-0.38;70.80
20628;BME280;10473;42.734;24.258;2023-01-31T04:45:00;90983.59;;;-0.48;72.03
20628;BME280;10473;42.734;24.258;2023-01-31T04:47:27;90976.53;;;-0.59;71.11
20628;BME280;10473;42.734;24.258;2023-01-31T04:49:55;90997.19;;;-0.63;73.62
20628;BME280;10473;42.734;24.258;2023-01-31T04:52:23;91012.38;;;-0.65;74.33
20628;BME280;10473;42.734;24.258;2023-01-31T04:54:50;91022.78;;;-0.65;72.69
20628;BME280;10473;42.734;24.258;2023-01-31T04:57:18;91017.06;;;-0.58;72.42
20628;BME280;10473;42.734;24.258;2023-01-31T04:59:47;91016.19;;;-0.62;72.88
20628;BME280;10473;42.734;24.258;2023-01-31T05:02:15;91010.03;;;-0.78;72.97
20628;BME280;10473;42.734;24.258;2023-01-31T05:04:43;91040.59;;;-0.75;73.00
20628;BME280;10473;42.734;24.258;2023-01-31T05:07:10;91057.47;;;-0.61;73.17
20628;BME280;10473;42.734;24.258;2023-01-31T05:09:38;91047.81;;;-0.60;73.25
20628;BME280;10473;42.734;24.258;2023-01-31T05:12:07;91056.25;;;-0.63;71.54
20628;BME280;10473;42.734;24.258;2023-01-31T05:14:35;91062.22;;;-0.63;71.91
20628;BME280;10473;42.734;24.258;2023-01-31T05:17:04;91072.22;;;-0.53;70.98
20628;BME280;10473;42.734;24.258;2023-01-31T05:19:33;91087.34;;;-0.46;70.69
20628;BME280;10473;42.734;24.258;2023-01-31T05:22:02;91100.22;;;-0.50;71.12
20628;BME280;10473;42.734;24.258;2023-01-31T05:24:34;91120.97;;;-0.41;70.86
20628;BME280;10473;42.734;24.258;2023-01-31T05:27:03;91105.09;;;-0.48;68.92
20628;BME280;10473;42.734;24.258;2023-01-31T05:29:31;91121.47;;;-0.48;69.59
20628;BME280;10473;42.734;24.258;2023-01-31T05:32:00;91110.81;;;-0.55;69.71
20628;BME280;10473;42.734;24.258;2023-01-31T05:34:29;91128.00;;;-0.42;68.92
20628;BME280;10473;42.734;24.258;2023-01-31T05:37:00;91133.41;;;-0.47;69.26
20628;BME280;10473;42.734;24.258;2023-01-31T05:39:28;91139.22;;;-0.50;69.41
20628;BME280;10473;42.734;24.258;2023-01-31T05:41:56;91156.63;;;-0.42;68.66
20628;BME280;10473;42.734;24.258;2023-01-31T05:44:23;91150.78;;;-0.39;68.22
20628;BME280;10473;42.734;24.258;2023-01-31T05:46:52;91149.69;;;-0.38;68.81
20628;BME280;10473;42.734;24.258;2023-01-31T05:49:20;91134.66;;;-0.53;67.84
20628;BME280;10473;42.734;24.258;2023-01-31T05:51:49;91162.09;;;-0.35;67.72
20628;BME280;10473;42.734;24.258;2023-01-31T05:54:18;91146.16;;;-0.33;67.68
20628;BME280;10473;42.734;24.258;2023-01-31T05:56:46;91118.03;;;-0.40;67.45
20628;BME280;10473;42.734;24.258;2023-01-31T05:59:14;91171.53;;;-0.30;67.50
20628;BME280;10473;42.734;24.258;2023-01-31T06:01:42;91182.72;;;-0.30;67.36
20628;BME280;10473;42.734;24.258;2023-01-31T06:04:10;91170.66;;;-0.34;67.91
20628;BME280;10473;42.734;24.258;2023-01-31T06:06:38;91188.53;;;-0.33;67.74
20628;BME280;10473;42.734;24.258;2023-01-31T06:09:07;91179.47;;;-0.47;67.51
20628;BME280;10473;42.734;24.258;2023-01-31T06:11:34;91172.00;;;-0.28;66.51
20628;BME280;10473;42.734;24.258;2023-01-31T06:14:02;91179.47;;;-0.27;66.96
20628;BME280;10473;42.734;24.258;2023-01-31T06:16:31;91195.34;;;-0.20;66.34
20628;BME280;10473;42.734;24.258;2023-01-31T06:18:59;91199.03;;;-0.21;66.66
20628;BME280;10473;42.734;24.258;2023-01-31T06:21:27;91195.16;;;-0.15;66.59
20628;BME280;10473;42.734;24.258;2023-01-31T06:23:55;91175.41;;;-0.16;66.48
20628;BME280;10473;42.734;24.258;2023-01-31T06:26:24;91184.31;;;-0.17;66.72
20628;BME280;10473;42.734;24.258;2023-01-31T06:28:51;91198.66;;;-0.11;65.63
20628;BME280;10473;42.734;24.258;2023-01-31T06:31:20;91179.41;;;-0.18;66.74
20628;BME280;10473;42.734;24.258;2023-01-31T06:33:48;91184.78;;;-0.03;66.43
20628;BME280;10473;42.734;24.258;2023-01-31T06:36:17;91182.66;;;-0.01;65.81
20628;BME280;10473;42.734;24.258;2023-01-31T06:38:48;91181.69;;;0.04;65.91
20628;BME280;10473;42.734;24.258;2023-01-31T06:41:16;91179.22;;;0.08;66.48
20628;BME280;10473;42.734;24.258;2023-01-31T06:43:45;91181.63;;;0.13;66.29
20628;BME280;10473;42.734;24.258;2023-01-31T06:46:13;91180.75;;;0.08;66.21
20628;BME280;10473;42.734;24.258;2023-01-31T06:48:40;91187.16;;;0.11;66.37
20628;BME280;10473;42.734;24.258;2023-01-31T06:51:09;91190.66;;;0.15;67.21
20628;BME280;10473;42.734;24.258;2023-01-31T06:53:36;91200.38;;;0.06;66.07
20628;BME280;10473;42.734;24.258;2023-01-31T06:56:05;91212.03;;;0.20;65.94
20628;BME280;10473;42.734;24.258;2023-01-31T06:58:33;91213.56;;;0.21;66.82
20628;BME280;10473;42.734;24.258;2023-01-31T07:01:05;91201.56;;;0.08;66.35
20628;BME280;10473;42.734;24.258;2023-01-31T07:03:32;91223.53;;;0.19;65.89
20628;BME280;10473;42.734;24.258;2023-01-31T07:06:00;91212.63;;;0.26;66.26
20628;BME280;10473;42.734;24.258;2023-01-31T07:08:28;91198.78;;;0.13;65.59
20628;BME280;10473;42.734;24.258;2023-01-31T07:10:56;91219.41;;;0.18;66.87
20628;BME280;10473;42.734;24.258;2023-01-31T07:13:24;91212.50;;;0.22;66.86
20628;BME280;10473;42.734;24.258;2023-01-31T07:15:55;91222.13;;;0.22;65.22
20628;BME280;10473;42.734;24.258;2023-01-31T07:18:25;91225.31;;;0.28;66.30
20628;BME280;10473;42.734;24.258;2023-01-31T07:20:53;91243.75;;;0.22;65.82
20628;BME280;10473;42.734;24.258;2023-01-31T07:23:20;91238.78;;;0.29;66.11
20628;BME280;10473;42.734;24.258;2023-01-31T07:25:48;91242.47;;;0.28;65.69
20628;BME280;10473;42.734;24.258;2023-01-31T07:28:17;91157.25;;;-0.45;65.71
20628;BME280;10473;42.734;24.258;2023-01-31T07:30:44;91231.94;;;0.25;65.66
20628;BME280;10473;42.734;24.258;2023-01-31T07:33:13;91220.13;;;0.28;66.93
20628;BME280;10473;42.734;24.258;2023-01-31T07:35:42;91225.75;;;0.29;64.99
20628;BME280;10473;42.734;24.258;2023-01-31T07:38:10;91235.47;;;0.20;65.32
20628;BME280;10473;42.734;24.258;2023-01-31T07:40:38;91226.06;;;0.28;65.06
20628;BME280;10473;42.734;24.258;2023-01-31T07:43:06;91254.00;;;0.39;64.79
20628;BME280;10473;42.734;24.258;2023-01-31T07:45:34;91246.19;;;0.39;65.67
20628;BME280;10473;42.734;24.258;2023-01-31T07:48:01;91228.59;;;0.36;64.23
20628;BME280;10473;42.734;24.258;2023-01-31T07:50:29;91220.47;;;0.38;64.61
20628;BME280;10473;42.734;24.258;2023-01-31T07:52:58;91208.25;;;0.50;64.62
20628;BME280;10473;42.734;24.258;2023-01-31T07:55:26;91193.94;;;0.56;62.16
20628;BME280;10473;42.734;24.258;2023-01-31T07:57:53;91264.16;;;0.53;63.60
20628;BME280;10473;42.734;24.258;2023-01-31T08:00:21;91216.19;;;0.54;63.96
20628;BME280;10473;42.734;24.258;2023-01-31T08:03:22;91248.91;;;0.63;63.51
20628;BME280;10473;42.734;24.258;2023-01-31T08:06:02;91238.75;;;0.50;63.67
20628;BME280;10473;42.734;24.258;2023-01-31T08:08:32;91247.59;;;0.57;64.25
20628;BME280;10473;42.734;24.258;2023-01-31T08:11:00;91228.59;;;0.36;64.89
20628;BME280;10473;42.734;24.258;2023-01-31T08:13:29;91273.81;;;0.73;64.72
20628;BME280;10473;42.734;24.258;2023-01-31T08:15:57;91249.72;;;0.55;65.21
20628;BME280;10473;42.734;24.258;2023-01-31T08:18:25;91271.97;;;0.73;65.18
20628;BME280;10473;42.734;24.258;2023-01-31T08:20:52;91275.09;;;0.67;65.21
20628;BME280;10473;42.734;24.258;2023-01-31T08:23:20;91266.31;;;0.72;65.36
20628;BME280;10473;42.734;24.258;2023-01-31T08:25:49;91247.81;;;0.64;65.80
20628;BME280;10473;42.734;24.258;2023-01-31T08:28:17;91281.69;;;0.64;65.59
20628;BME280;10473;42.734;24.258;2023-01-31T08:30:45;91279.19;;;0.88;65.18
20628;BME280;10473;42.734;24.258;2023-01-31T08:33:13;91278.28;;;0.84;66.55
20628;BME280;10473;42.734;24.258;2023-01-31T08:35:40;91285.59;;;0.91;65.82
20628;BME280;10473;42.734;24.258;2023-01-31T08:38:08;91286.59;;;0.98;66.60
20628;BME280;10473;42.734;24.258;2023-01-31T08:40:36;91281.63;;;1.05;65.23
20628;BME280;10473;42.734;24.258;2023-01-31T08:43:05;91258.53;;;0.83;65.19
20628;BME280;10473;42.734;24.258;2023-01-31T08:45:32;91264.50;;;1.17;65.47
20628;BME280;10473;42.734;24.258;2023-01-31T08:48:00;91277.06;;;1.14;63.02
20628;BME280;10473;42.734;24.258;2023-01-31T08:50:29;91295.34;;;1.14;63.01
20628;BME280;10473;42.734;24.258;2023-01-31T08:52:59;91286.00;;;1.13;64.29
20628;BME280;10473;42.734;24.258;2023-01-31T08:55:29;91248.06;;;1.04;64.01
20628;BME280;10473;42.734;24.258;2023-01-31T08:57:58;91311.66;;;1.23;64.20
20628;BME280;10473;42.734;24.258;2023-01-31T09:00:29;91291.78;;;1.19;63.41
20628;BME280;10473;42.734;24.258;2023-01-31T09:02:59;91297.56;;;1.37;64.88
20628;BME280;10473;42.734;24.258;2023-01-31T09:05:28;91290.94;;;1.39;63.95
20628;BME280;10473;42.734;24.258;2023-01-31T09:07:56;91308.59;;;1.54;64.02
20628;BME280;10473;42.734;24.258;2023-01-31T09:10:23;91307.69;;;1.50;63.45
20628;BME280;10473;42.734;24.258;2023-01-31T09:12:51;91326.06;;;1.53;63.86
20628;BME280;10473;42.734;24.258;2023-01-31T09:15:19;91313.47;;;1.67;63.72
20628;BME280;10473;42.734;24.258;2023-01-31T09:17:48;91310.53;;;1.57;63.80
20628;BME280;10473;42.734;24.258;2023-01-31T09:20:16;91225.91;;;1.10;64.46
20628;BME280;10473;42.734;24.258;2023-01-31T09:22:44;91311.09;;;1.87;63.86
20628;BME280;10473;42.734;24.258;2023-01-31T09:25:12;91298.91;;;1.78;62.34
20628;BME280;10473;42.734;24.258;2023-01-31T09:27:40;91315.25;;;1.88;63.82
20628;BME280;10473;42.734;24.258;2023-01-31T09:30:08;91301.75;;;1.86;62.76
20628;BME280;10473;42.734;24.258;2023-01-31T09:32:37;91287.59;;;1.87;62.76
20628;BME280;10473;42.734;24.258;2023-01-31T09:35:10;91299.25;;;1.89;62.50
20628;BME280;10473;42.734;24.258;2023-01-31T09:38:05;91292.34;;;2.45;62.49
20628;BME280;10473;42.734;24.258;2023-01-31T09:40:37;91304.31;;;3.13;60.75
20628;BME280;10473;42.734;24.258;2023-01-31T09:43:09;91285.63;;;3.42;58.74
20628;BME280;10473;42.734;24.258;2023-01-31T09:45:40;91291.66;;;4.04;56.61
20628;BME280;10473;42.734;24.258;2023-01-31T09:48:14;91298.22;;;3.98;56.43
20628;BME280;10473;42.734;24.258;2023-01-31T09:50:48;91294.78;;;3.79;57.31
20628;BME280;10473;42.734;24.258;2023-01-31T09:53:32;91291.22;;;3.56;58.87
20628;BME280;10473;42.734;24.258;2023-01-31T09:56:13;91301.25;;;3.38;59.41
20628;BME280;10473;42.734;24.258;2023-01-31T09:58:51;91274.75;;;3.86;59.71
20628;BME280;10473;42.734;24.258;2023-01-31T10:01:25;91211.47;;;3.84;58.16
20628;BME280;10473;42.734;24.258;2023-01-31T10:04:21;91256.41;;;3.71;57.84
20628;BME280;10473;42.734;24.258;2023-01-31T10:06:56;91247.88;;;4.39;56.22
20628;BME280;10473;42.734;24.258;2023-01-31T10:09:31;91239.47;;;4.87;55.00
20628;BME280;10473;42.734;24.258;2023-01-31T10:12:06;91234.69;;;5.98;53.12
20628;BME280;10473;42.734;24.258;2023-01-31T10:14:41;91239.94;;;6.50;50.77
20628;BME280;10473;42.734;24.258;2023-01-31T10:17:17;91227.84;;;7.05;49.38
20628;BME280;10473;42.734;24.258;2023-01-31T10:19:49;91210.19;;;7.42;50.09
20628;BME280;10473;42.734;24.258;2023-01-31T10:22:27;91198.25;;;8.56;47.39
20628;BME280;10473;42.734;24.258;2023-01-31T10:25:00;91186.78;;;9.06;43.76
20628;BME280;10473;42.734;24.258;2023-01-31T10:27:39;91188.66;;;8.98;43.25
20628;BME280;10473;42.734;24.258;2023-01-31T10:30:15;91182.69;;;9.33;43.34
20628;BME280;10473;42.734;24.258;2023-01-31T10:32:46;91185.28;;;9.15;43.36
20628;BME280;10473;42.734;24.258;2023-01-31T10:35:20;91183.13;;;9.56;42.57
20628;BME280;10473;42.734;24.258;2023-01-31T10:37:54;91190.66;;;9.47;42.54
20628;BME280;10473;42.734;24.258;2023-01-31T10:40:29;91192.63;;;9.78;40.96
20628;BME280;10473;42.734;24.258;2023-01-31T10:43:07;91183.13;;;10.68;40.70
20628;BME280;10473;42.734;24.258;2023-01-31T10:45:36;91169.69;;;11.17;38.84
20628;BME280;10473;42.734;24.258;2023-01-31T10:48:13;91171.81;;;9.97;40.10
20628;BME280;10473;42.734;24.258;2023-01-31T10:50:52;91183.31;;;8.84;43.15
20628;BME280;10473;42.734;24.258;2023-01-31T10:53:36;91182.53;;;7.69;45.86
20628;BME280;10473;42.734;24.258;2023-01-31T10:56:11;91195.94;;;7.50;45.39
20628;BME280;10473;42.734;24.258;2023-01-31T10:58:43;91162.97;;;6.90;46.56
20628;BME280;10473;42.734;24.258;2023-01-31T11:01:11;91183.75;;;6.65;47.48
20628;BME280;10473;42.734;24.258;2023-01-31T11:03:46;91185.81;;;5.94;50.11
20628;BME280;10473;42.734;24.258;2023-01-31T11:06:15;91200.28;;;5.62;52.36
20628;BME280;10473;42.734;24.258;2023-01-31T11:08:47;91184.25;;;5.44;52.05
20628;BME280;10473;42.734;24.258;2023-01-31T11:11:17;91203.50;;;4.88;52.88
20628;BME280;10473;42.734;24.258;2023-01-31T11:13:56;91183.97;;;4.47;54.68
20628;BME280;10473;42.734;24.258;2023-01-31T11:16:27;91204.47;;;5.21;53.80
20628;BME280;10473;42.734;24.258;2023-01-31T11:19:00;91211.66;;;5.69;51.82
20628;BME280;10473;42.734;24.258;2023-01-31T11:21:30;91212.03;;;6.16;52.20
20628;BME280;10473;42.734;24.258;2023-01-31T11:24:02;91206.16;;;6.00;52.93
20628;BME280;10473;42.734;24.258;2023-01-31T11:26:33;91221.13;;;5.96;53.06
20628;BME280;10473;42.734;24.258;2023-01-31T11:29:07;91223.94;;;5.84;53.05
20628;BME280;10473;42.734;24.258;2023-01-31T11:31:40;91228.06;;;4.99;55.03
20628;BME280;10473;42.734;24.258;2023-01-31T11:34:19;91259.66;;;4.83;55.71
20628;BME280;10473;42.734;24.258;2023-01-31T11:36:48;91249.19;;;4.68;53.97
20628;BME280;10473;42.734;24.258;2023-01-31T11:39:27;91242.50;;;4.17;56.31
20628;BME280;10473;42.734;24.258;2023-01-31T11:41:57;91253.88;;;3.90;57.88
20628;BME280;10473;42.734;24.258;2023-01-31T11:44:31;91233.22;;;3.11;59.60
20628;BME280;10473;42.734;24.258;2023-01-31T11:47:04;91248.56;;;2.97;59.92
20628;BME280;10473;42.734;24.258;2023-01-31T11:49:40;91215.97;;;2.79;60.28
20628;BME280;10473;42.734;24.258;2023-01-31T11:52:13;91223.25;;;3.01;59.94
20628;BME280;10473;42.734;24.258;2023-01-31T11:54:47;91229.22;;;2.86;57.89
20628;BME280;10473;42.734;24.258;2023-01-31T11:57:16;91263.28;;;2.74;59.37
20628;BME280;10473;42.734;24.258;2023-01-31T11:59:49;91230.59;;;2.67;60.04
20628;BME280;10473;42.734;24.258;2023-01-31T12:02:25;91227.59;;;2.53;60.39
20628;BME280;10473;42.734;24.258;2023-01-31T12:04:54;91238.72;;;2.11;61.70
20628;BME280;10473;42.734;24.258;2023-01-31T12:07:23;91234.50;;;1.95;62.79
20628;BME280;10473;42.734;24.258;2023-01-31T12:09:53;91252.50;;;2.23;63.16
20628;BME280;10473;42.734;24.258;2023-01-31T12:12:29;91262.75;;;2.17;63.39
20628;BME280;10473;42.734;24.258;2023-01-31T12:15:02;91256.56;;;2.09;62.50
20628;BME280;10473;42.734;24.258;2023-01-31T12:17:38;91239.38;;;2.08;63.41
20628;BME280;10473;42.734;24.258;2023-01-31T12:20:19;91260.56;;;2.18;62.51
20628;BME280;10473;42.734;24.258;2023-01-31T12:22:54;91270.56;;;2.28;63.93
20628;BME280;10473;42.734;24.258;2023-01-31T12:25:41;91274.34;;;1.92;67.05
20628;BME280;10473;42.734;24.258;2023-01-31T12:28:23;91298.16;;;1.78;69.08
20628;BME280;10473;42.734;24.258;2023-01-31T12:31:08;91277.38;;;1.82;67.18
20628;BME280;10473;42.734;24.258;2023-01-31T12:33:54;91261.47;;;1.74;66.85
20628;BME280;10473;42.734;24.258;2023-01-31T12:36:36;91261.38;;;1.71;67.51
20628;BME280;10473;42.734;24.258;2023-01-31T12:39:28;91269.53;;;1.69;66.17
20628;BME280;10473;42.734;24.258;2023-01-31T12:42:15;91267.38;;;1.72;66.70
20628;BME280;10473;42.734;24.258;2023-01-31T12:44:52;91261.06;;;1.61;66.71
20628;BME280;10473;42.734;24.258;2023-01-31T12:47:46;91268.97;;;1.52;68.19
20628;BME280;10473;42.734;24.258;2023-01-31T12:50:27;91246.25;;;1.52;67.04
20628;BME280;10473;42.734;24.258;2023-01-31T12:53:20;91266.81;;;1.66;67.92
20628;BME280;10473;42.734;24.258;2023-01-31T12:56:00;91249.28;;;1.54;68.26
20628;BME280;10473;42.734;24.258;2023-01-31T12:58:39;91278.69;;;1.76;68.90
20628;BME280;10473;42.734;24.258;2023-01-31T13:01:11;91255.63;;;1.77;67.56
20628;BME280;10473;42.734;24.258;2023-01-31T13:03:57;91271.50;;;1.84;67.45
20628;BME280;10473;42.734;24.258;2023-01-31T13:06:29;91260.63;;;1.83;67.50
20628;BME280;10473;42.734;24.258;2023-01-31T13:09:03;91284.53;;;2.21;68.19
20628;BME280;10473;42.734;24.258;2023-01-31T13:11:38;91293.66;;;2.27;67.98
20628;BME280;10473;42.734;24.258;2023-01-31T13:14:13;91290.28;;;2.38;66.47
20628;BME280;10473;42.734;24.258;2023-01-31T13:16:44;91303.88;;;2.43;67.62
20628;BME280;10473;42.734;24.258;2023-01-31T13:19:15;91313.47;;;2.40;66.29
20628;BME280;10473;42.734;24.258;2023-01-31T13:21:46;91313.81;;;2.38;67.60
20628;BME280;10473;42.734;24.258;2023-01-31T13:24:17;91314.31;;;2.56;67.10
20628;BME280;10473;42.734;24.258;2023-01-31T13:26:50;91299.72;;;2.55;65.88